CEFAS Endeavour — VQHF3 — position and weather

sailwx.info

Track history (hours):
 
Tides and Currents Weather Stations Pressure Air Temp Water Temp Dewpoint Dewpoint Depression Visibility Wind Speed Wind Dir Waves Ship Positions

Oceanographic research ship CEFAS Endeavour (UK)

Detailed information on ship capabilities available from University of Delaware's Ocean Information Center.

Last reported at 2016-May-30 04:32 UTC. Time now 2016-May-30 05:01 UTC.
Position N 52°28' E 001°45'.

Length 74 m; draft 5.2 m.

Type: Cargo ship. MMSI: 235005270.

Date/timePositionNaut miles runAvg speedWind from/ knotsBaromVisibWave heightAir tempDewpointWater temp
2016-May-30 04:32N 52°28' E 001°45'0 0.0
2016-May-30 03:32N 52°28' E 001°45'0 0.0
2016-May-30 02:32N 52°28' E 001°45'0 0.0
2016-May-30 01:32N 52°28' E 001°45'0 0.0
2016-May-30 00:32N 52°28' E 001°45'0 0.0
2016-May-29 23:32N 52°28' E 001°45'0 0.0
2016-May-29 22:32N 52°28' E 001°45'0 0.0
2016-May-29 21:32N 52°28' E 001°45'0 0.0
2016-May-29 20:32N 52°28' E 001°45'0 0.0
2016-May-29 19:32N 52°28' E 001°45'0 0.0
2016-May-29 18:32N 52°28' E 001°45'0 0.0
2016-May-29 17:32N 52°28' E 001°45'0 0.0
2016-May-29 16:32N 52°28' E 001°45'0 0.0
2016-May-29 15:32N 52°28' E 001°45'0 0.0
2016-May-29 14:32N 52°28' E 001°45'0 0.0
2016-May-29 13:34N 52°28' E 001°45'4 3.8
2016-May-29 12:34N 52°32' E 001°46'7 7.4
2016-May-29 11:34N 52°39' E 001°46'7 7.3
2016-May-29 10:33N 52°46' E 001°43'8 7.5
2016-May-29 09:33N 52°53' E 001°37'7 6.9
2016-May-29 08:34N 52°59' E 001°32'7 7.1
2016-May-29 07:33N 53°05' E 001°26'7 6.6
2016-May-29 06:33N 53°11' E 001°20'15 7.4
2016-May-29 04:30N 53°24' E 001°07'10 9.8
2016-May-29 03:30N 53°32' E 000°59'1010.0
2016-May-29 02:33N 53°42' E 000°56'12010.9
2016-May-28 15:33N 55°41' E 000°36'6 0.9
2016-May-28 09:04N 55°37' E 000°29'5 6.5
2016-May-28 08:18N 55°39' E 000°38'2 0.5
2016-May-28 04:19N 55°38' E 000°35'  
2016-May-25 12:17N 55°49' W 000°37'2 2.5
2016-May-25 11:25N 55°51' W 000°36'1 1.3
2016-May-25 10:14N 55°52' W 000°34'1 1.5
2016-May-25 09:27N 55°51' W 000°34'3 2.5
2016-May-25 08:24N 55°48' W 000°33'2 2.6
2016-May-25 07:31N 55°46' W 000°32'3 0.3
2016-May-24 21:16N 55°49' W 000°31'6 3.7
2016-May-24 19:34N 55°51' W 000°20'1110.6
2016-May-24 18:33N 55°44' W 000°07'22 1.0
2016-May-23 20:28N 55°40' E 000°32'  
Track history (hours):
 
Tides and Currents Weather Stations Pressure Air Temp Water Temp Dewpoint Dewpoint Depression Visibility Wind Speed Wind Dir Waves Ship Positions

Oceanographic research ship CEFAS Endeavour (UK)

Detailed information on ship capabilities available from University of Delaware's Ocean Information Center.

Last reported at 2016-May-30 04:32 UTC. Time now 2016-May-30 05:01 UTC.
Position N 52°28' E 001°45'.

Length 74 m; draft 5.2 m.

Type: Cargo ship. MMSI: 235005270.

Date/timePositionNaut miles runAvg speedWind from/ knotsBaromVisibWave heightAir tempDewpointWater temp
2016-May-30 04:32N 52°28' E 001°45'0 0.0
2016-May-30 03:32N 52°28' E 001°45'0 0.0
2016-May-30 02:32N 52°28' E 001°45'0 0.0
2016-May-30 01:32N 52°28' E 001°45'0 0.0
2016-May-30 00:32N 52°28' E 001°45'0 0.0
2016-May-29 23:32N 52°28' E 001°45'0 0.0
2016-May-29 22:32N 52°28' E 001°45'0 0.0
2016-May-29 21:32N 52°28' E 001°45'0 0.0
2016-May-29 20:32N 52°28' E 001°45'0 0.0
2016-May-29 19:32N 52°28' E 001°45'0 0.0
2016-May-29 18:32N 52°28' E 001°45'0 0.0
2016-May-29 17:32N 52°28' E 001°45'0 0.0
2016-May-29 16:32N 52°28' E 001°45'0 0.0
2016-May-29 15:32N 52°28' E 001°45'0 0.0
2016-May-29 14:32N 52°28' E 001°45'0 0.0
2016-May-29 13:34N 52°28' E 001°45'4 3.8
2016-May-29 12:34N 52°32' E 001°46'7 7.4
2016-May-29 11:34N 52°39' E 001°46'7 7.3
2016-May-29 10:33N 52°46' E 001°43'8 7.5
2016-May-29 09:33N 52°53' E 001°37'7 6.9
2016-May-29 08:34N 52°59' E 001°32'7 7.1
2016-May-29 07:33N 53°05' E 001°26'7 6.6
2016-May-29 06:33N 53°11' E 001°20'15 7.4
2016-May-29 04:30N 53°24' E 001°07'10 9.8
2016-May-29 03:30N 53°32' E 000°59'1010.0
2016-May-29 02:33N 53°42' E 000°56'12010.9
2016-May-28 15:33N 55°41' E 000°36'6 0.9
2016-May-28 09:04N 55°37' E 000°29'5 6.5
2016-May-28 08:18N 55°39' E 000°38'2 0.5
2016-May-28 04:19N 55°38' E 000°35'  
2016-May-25 12:17N 55°49' W 000°37'2 2.5
2016-May-25 11:25N 55°51' W 000°36'1 1.3
2016-May-25 10:14N 55°52' W 000°34'1 1.5
2016-May-25 09:27N 55°51' W 000°34'3 2.5
2016-May-25 08:24N 55°48' W 000°33'2 2.6
2016-May-25 07:31N 55°46' W 000°32'3 0.3
2016-May-24 21:16N 55°49' W 000°31'6 3.7
2016-May-24 19:34N 55°51' W 000°20'1110.6
2016-May-24 18:33N 55°44' W 000°07'22 1.0
2016-May-23 20:28N 55°40' E 000°32'  

Dump ship's entire track history